Time;durP1;ratioP1;P1;durP2;ratioP2;P2;SDS_P1;SDS_P2;PMS_P1;PMS_P2;Temp;Humidity;BMP_temperature;BMP_pressure;BME280_temperature;BME280_humidity;BME280_pressure;Samples;Min_cycle;Max_cycle;Signal;HPM_P1;HPM_P2
2024/04/12 00:01:45;;;;;;;10.60;7.27;;;14.30;99.90;;;;;;5451367;26;20233;-62
2024/04/12 00:04:16;;;;;;;9.20;7.13;;;14.30;99.90;;;;;;5458854;26;20294;-63
2024/04/12 00:06:49;;;;;;;9.50;8.30;;;14.30;99.90;;;;;;5455012;26;20256;-63
2024/04/12 00:09:17;;;;;;;11.50;8.63;;;14.30;99.90;;;;;;5458812;26;20280;-63
2024/04/12 00:11:49;;;;;;;10.43;8.70;;;14.30;99.90;;;;;;5453269;26;20592;-63
2024/04/12 00:14:17;;;;;;;11.20;9.30;;;14.20;99.90;;;;;;5457159;26;20309;-62
2024/04/12 00:16:50;;;;;;;11.47;8.17;;;14.20;99.90;;;;;;5448308;26;20758;-62
2024/04/12 00:19:23;;;;;;;13.53;9.47;;;14.20;99.90;;;;;;5453342;26;20275;-63
2024/04/12 00:21:59;;;;;;;14.80;9.93;;;14.20;99.90;;;;;;5457191;25;20292;-63
2024/04/12 00:24:29;;;;;;;13.60;9.33;;;14.20;99.90;;;;;;5447920;26;20735;-62
2024/04/12 00:27:05;;;;;;;12.83;9.77;;;14.20;99.90;;;;;;5451301;26;20256;-64
2024/04/12 00:29:36;;;;;;;12.13;9.80;;;14.20;99.90;;;;;;5448584;25;20253;-63
2024/04/12 00:32:13;;;;;;;12.77;9.43;;;14.20;99.90;;;;;;5445785;26;20348;-62
2024/04/12 00:34:47;;;;;;;12.67;9.83;;;14.20;99.90;;;;;;5449191;26;20231;-62
2024/04/12 00:37:20;;;;;;;13.47;9.70;;;14.20;99.90;;;;;;5460521;26;20233;-63
2024/04/12 00:39:54;;;;;;;14.67;10.00;;;14.20;99.90;;;;;;5454173;26;20327;-63
2024/04/12 00:42:31;;;;;;;16.10;10.30;;;14.20;99.90;;;;;;5455175;26;20250;-63
2024/04/12 00:45:02;;;;;;;13.57;9.27;;;14.20;99.90;;;;;;5455979;26;20581;-63
2024/04/12 00:47:35;;;;;;;12.07;9.37;;;14.20;99.90;;;;;;5448203;26;20333;-62
2024/04/12 00:50:07;;;;;;;15.13;9.60;;;14.20;99.90;;;;;;5448322;26;20262;-63
2024/04/12 00:52:43;;;;;;;15.30;10.20;;;14.20;99.90;;;;;;5450045;26;20245;-63
2024/04/12 00:55:13;;;;;;;11.87;8.77;;;14.20;99.90;;;;;;5460364;26;20889;-63
2024/04/12 00:57:43;;;;;;;14.63;9.73;;;14.20;99.90;;;;;;5449653;26;20295;-63
2024/04/12 01:00:12;;;;;;;13.30;9.93;;;14.20;99.90;;;;;;5457791;26;20309;-63
2024/04/12 01:02:48;;;;;;;10.57;9.13;;;14.20;99.90;;;;;;5457384;26;20262;-64
2024/04/12 01:05:21;;;;;;;13.30;9.87;;;14.20;99.90;;;;;;5449561;26;20274;-64
2024/04/12 01:07:55;;;;;;;13.37;9.83;;;14.20;99.90;;;;;;5454246;25;20233;-64
2024/04/12 01:10:25;;;;;;;14.13;9.80;;;14.20;99.90;;;;;;5449052;26;20231;-64
2024/04/12 01:13:01;;;;;;;12.87;9.13;;;14.10;99.90;;;;;;5459527;26;20345;-64
2024/04/12 01:15:32;;;;;;;15.53;9.50;;;14.10;99.90;;;;;;5450574;26;20324;-63
2024/04/12 01:18:04;;;;;;;14.13;9.83;;;14.10;99.90;;;;;;5452989;26;20910;-62
2024/04/12 01:20:35;;;;;;;15.53;9.33;;;14.10;99.90;;;;;;5439713;26;20264;-63
2024/04/12 01:23:06;;;;;;;14.43;9.80;;;14.20;99.90;;;;;;5444982;26;20755;-63
2024/04/12 01:25:37;;;;;;;13.23;9.57;;;14.20;99.90;;;;;;5442623;26;20243;-62
2024/04/12 01:28:10;;;;;;;16.97;10.10;;;14.20;99.90;;;;;;5445390;26;20276;-63
2024/04/12 01:30:39;;;;;;;18.80;11.03;;;14.10;99.90;;;;;;5448793;26;20251;-63
2024/04/12 01:33:11;;;;;;;16.63;10.50;;;14.10;99.90;;;;;;5454657;25;20257;-63
2024/04/12 01:35:42;;;;;;;19.73;10.80;;;14.10;99.90;;;;;;5452459;26;20291;-63
2024/04/12 01:38:19;;;;;;;17.23;11.10;;;14.00;99.90;;;;;;5473867;26;20254;-62
2024/04/12 01:40:56;;;;;;;17.00;10.93;;;14.00;99.90;;;;;;5458138;26;20234;-61
2024/04/12 01:43:35;;;;;;;19.00;11.23;;;13.90;99.90;;;;;;5451277;26;20256;-62
2024/04/12 01:46:04;;;;;;;20.13;11.63;;;13.80;99.90;;;;;;5450450;26;20241;-62
2024/04/12 01:48:36;;;;;;;20.80;12.27;;;13.70;99.90;;;;;;5462140;26;20250;-63
2024/04/12 01:51:07;;;;;;;18.53;11.20;;;13.70;99.90;;;;;;5458669;26;20244;-63
2024/04/12 01:53:40;;;;;;;19.53;11.57;;;13.60;99.90;;;;;;5450211;26;20626;-63
2024/04/12 01:56:10;;;;;;;24.33;12.77;;;13.50;99.90;;;;;;5454238;26;20300;-62
2024/04/12 01:58:42;;;;;;;21.07;12.13;;;13.50;99.90;;;;;;5448876;26;20234;-62
2024/04/12 02:01:11;;;;;;;21.13;12.33;;;13.50;99.90;;;;;;5415599;26;20293;-63
2024/04/12 02:03:42;;;;;;;24.17;12.73;;;13.50;99.90;;;;;;5452445;26;20248;-62
2024/04/12 02:06:15;;;;;;;24.90;13.43;;;13.60;99.90;;;;;;5456750;25;20287;-63
2024/04/12 02:08:48;;;;;;;23.17;13.33;;;13.60;99.90;;;;;;5457645;26;20252;-63
2024/04/12 02:11:23;;;;;;;26.43;13.57;;;13.60;99.90;;;;;;5455049;26;20267;-63
2024/04/12 02:13:57;;;;;;;24.33;14.40;;;13.60;99.90;;;;;;5453550;26;20232;-63
2024/04/12 02:16:31;;;;;;;24.53;13.50;;;13.60;99.90;;;;;;5456770;26;20231;-63
2024/04/12 02:18:59;;;;;;;25.73;14.17;;;13.60;99.90;;;;;;5457134;26;20359;-63
2024/04/12 02:21:31;;;;;;;24.77;14.90;;;13.60;99.90;;;;;;5457733;26;20249;-62
2024/04/12 02:24:01;;;;;;;28.57;14.47;;;13.60;99.90;;;;;;5449652;26;21399;-62
2024/04/12 02:26:35;;;;;;;28.57;13.90;;;13.60;99.90;;;;;;5453404;26;20732;-63
2024/04/12 02:29:04;;;;;;;29.73;14.47;;;13.60;99.90;;;;;;5454901;26;20260;-62
2024/04/12 02:31:35;;;;;;;27.10;15.03;;;13.60;99.90;;;;;;5430904;26;20729;-63
2024/04/12 02:34:03;;;;;;;26.07;14.07;;;13.50;99.90;;;;;;5456544;26;20282;-62
2024/04/12 02:36:33;;;;;;;30.70;14.63;;;13.50;99.90;;;;;;5463733;26;20242;-63
2024/04/12 02:39:08;;;;;;;30.73;15.30;;;13.40;99.90;;;;;;5462549;26;20271;-63
2024/04/12 02:41:42;;;;;;;29.53;15.17;;;13.40;99.90;;;;;;5453194;26;20548;-63
2024/04/12 02:44:09;;;;;;;34.37;15.10;;;13.40;99.90;;;;;;5452684;26;20353;-62
2024/04/12 02:46:41;;;;;;;29.10;14.73;;;13.40;99.90;;;;;;5453493;26;20233;-63
2024/04/12 02:49:12;;;;;;;29.40;14.70;;;13.30;99.90;;;;;;5458633;26;20237;-63
2024/04/12 02:51:47;;;;;;;33.03;15.57;;;13.30;99.90;;;;;;5457439;26;20278;-63
2024/04/12 02:54:16;;;;;;;32.30;15.13;;;13.20;99.90;;;;;;5454434;26;20253;-63
2024/04/12 02:56:49;;;;;;;31.57;15.17;;;13.20;99.90;;;;;;5456156;26;20642;-62
2024/04/12 02:59:17;;;;;;;35.77;15.80;;;13.20;99.90;;;;;;5453367;26;20305;-62
2024/04/12 03:01:48;;;;;;;28.37;15.13;;;13.10;99.90;;;;;;5457915;26;20794;-62
2024/04/12 03:04:17;;;;;;;31.13;15.63;;;13.10;99.90;;;;;;5447179;26;20234;-63
2024/04/12 03:06:47;;;;;;;29.60;15.07;;;13.10;99.90;;;;;;5443013;26;20283;-63
2024/04/12 03:09:18;;;;;;;33.63;16.13;;;13.10;99.90;;;;;;5461476;26;20296;-64
2024/04/12 03:11:51;;;;;;;33.73;16.13;;;13.10;99.90;;;;;;5449581;26;20265;-63
2024/04/12 03:14:19;;;;;;;28.57;14.80;;;13.10;99.90;;;;;;5458690;25;20299;-62
2024/04/12 03:16:51;;;;;;;31.47;16.03;;;13.00;99.90;;;;;;5455703;26;20557;-62
2024/04/12 03:19:19;;;;;;;33.57;16.10;;;12.90;99.90;;;;;;5455795;26;20224;-63
2024/04/12 03:21:50;;;;;;;38.53;17.23;;;12.90;99.90;;;;;;5458991;26;20790;-62
2024/04/12 03:24:19;;;;;;;33.90;17.27;;;12.90;99.90;;;;;;5450074;26;20568;-63
2024/04/12 03:26:54;;;;;;;34.20;17.03;;;12.90;99.90;;;;;;5450099;26;20362;-62
2024/04/12 03:29:23;;;;;;;38.77;17.13;;;12.90;99.90;;;;;;5454730;26;20834;-62
2024/04/12 03:31:53;;;;;;;43.13;18.23;;;12.80;99.90;;;;;;5460896;26;20241;-62
2024/04/12 03:34:24;;;;;;;36.83;16.27;;;12.80;99.90;;;;;;5450011;26;20877;-63
2024/04/12 03:37:16;;;;;;;40.73;18.70;;;12.80;99.90;;;;;;5452947;26;20329;-63
2024/04/12 03:39:47;;;;;;;37.67;17.83;;;12.80;99.90;;;;;;5454670;26;20302;-63
2024/04/12 03:42:20;;;;;;;43.07;17.77;;;12.80;99.90;;;;;;5453608;26;20323;-63
2024/04/12 03:44:48;;;;;;;42.37;18.90;;;12.80;99.90;;;;;;5456823;26;20248;-63
2024/04/12 03:47:19;;;;;;;36.53;16.57;;;12.70;99.90;;;;;;5442487;26;20360;-62
2024/04/12 03:49:51;;;;;;;40.10;18.00;;;12.80;99.90;;;;;;5456016;26;20241;-62
2024/04/12 03:52:22;;;;;;;39.87;17.87;;;12.80;99.90;;;;;;5453367;26;20294;-63
2024/04/12 03:54:53;;;;;;;43.97;18.83;;;12.70;99.90;;;;;;5449580;25;20257;-63
2024/04/12 03:57:26;;;;;;;40.57;19.20;;;12.70;99.90;;;;;;5449713;26;20324;-63
2024/04/12 03:59:59;;;;;;;40.70;17.87;;;12.70;99.90;;;;;;5458604;26;20264;-63
2024/04/12 04:02:29;;;;;;;40.70;18.30;;;12.70;99.90;;;;;;5451633;26;20244;-63
2024/04/12 04:05:13;;;;;;;38.37;17.47;;;12.70;99.90;;;;;;5456353;26;20234;-62
2024/04/12 04:07:44;;;;;;;39.17;17.27;;;12.70;99.90;;;;;;5448233;26;20276;-62
2024/04/12 04:10:15;;;;;;;34.27;17.37;;;12.60;99.90;;;;;;5453804;26;20731;-63
2024/04/12 04:12:49;;;;;;;41.70;18.60;;;12.60;99.90;;;;;;5463303;26;20256;-63
2024/04/12 04:15:25;;;;;;;39.40;18.47;;;12.60;99.90;;;;;;5454644;26;20282;-63
2024/04/12 04:17:53;;;;;;;41.43;17.97;;;12.60;99.90;;;;;;5446109;25;20307;-63
2024/04/12 04:20:27;;;;;;;38.03;18.40;;;12.60;99.90;;;;;;5451969;25;20253;-62
2024/04/12 04:23:02;;;;;;;45.23;19.53;;;12.70;99.90;;;;;;5461728;26;20254;-63
2024/04/12 04:25:34;;;;;;;44.63;18.93;;;12.70;99.90;;;;;;5445274;26;20245;-63
2024/04/12 04:28:09;;;;;;;37.80;17.93;;;12.80;99.90;;;;;;5439622;26;20257;-63
2024/04/12 04:30:41;;;;;;;38.73;17.57;;;12.80;99.90;;;;;;5450018;26;20254;-63
2024/04/12 04:33:12;;;;;;;42.13;18.63;;;12.80;99.90;;;;;;5460001;25;20248;-63
2024/04/12 04:35:44;;;;;;;39.97;18.40;;;12.90;99.90;;;;;;5441826;26;20303;-63
2024/04/12 04:38:15;;;;;;;37.77;18.07;;;12.90;99.90;;;;;;5448971;25;20284;-64
2024/04/12 04:40:45;;;;;;;37.33;17.17;;;12.90;99.90;;;;;;5449364;26;20734;-63
2024/04/12 04:43:23;;;;;;;32.47;17.87;;;12.90;99.90;;;;;;5457210;26;20233;-64
2024/04/12 04:45:53;;;;;;;36.60;17.30;;;13.00;99.90;;;;;;5454798;25;20248;-64
2024/04/12 04:48:22;;;;;;;34.20;17.23;;;13.00;99.90;;;;;;5450070;26;20291;-64
2024/04/12 04:50:52;;;;;;;37.67;17.10;;;13.10;99.90;;;;;;5447522;26;20265;-63
2024/04/12 04:53:20;;;;;;;39.17;16.70;;;13.10;99.90;;;;;;5451100;26;20339;-63
2024/04/12 04:55:51;;;;;;;36.87;17.53;;;13.20;99.90;;;;;;5458782;25;20237;-63
2024/04/12 04:58:25;;;;;;;34.07;16.73;;;13.20;99.90;;;;;;5456954;26;20241;-64
2024/04/12 05:00:58;;;;;;;42.67;17.40;;;13.20;99.90;;;;;;5447693;26;20261;-63
2024/04/12 05:03:25;;;;;;;33.67;16.77;;;13.20;99.90;;;;;;5457936;26;20303;-64
2024/04/12 05:05:55;;;;;;;32.87;17.13;;;13.30;99.90;;;;;;5457348;25;20866;-63
2024/04/12 05:08:23;;;;;;;28.13;16.63;;;13.30;99.90;;;;;;5451911;25;20352;-64
2024/04/12 05:10:53;;;;;;;36.87;16.27;;;13.30;99.90;;;;;;5456484;25;20229;-63
2024/04/12 05:13:25;;;;;;;26.27;14.87;;;13.40;99.90;;;;;;5457454;26;20250;-63
2024/04/12 05:15:55;;;;;;;29.10;16.13;;;13.40;99.90;;;;;;5457981;25;20584;-63
2024/04/12 05:18:23;;;;;;;27.33;16.03;;;13.50;99.90;;;;;;5454548;26;20297;-63
2024/04/12 05:20:57;;;;;;;32.20;15.60;;;13.50;99.90;;;;;;5478376;25;20750;-63
2024/04/12 05:23:28;;;;;;;30.13;15.17;;;13.60;99.90;;;;;;5459558;25;20277;-63
2024/04/12 05:25:59;;;;;;;30.93;14.23;;;13.60;99.90;;;;;;5452690;26;20250;-63
2024/04/12 05:28:30;;;;;;;19.67;14.30;;;13.70;99.90;;;;;;5448661;26;20275;-64
2024/04/12 05:31:00;;;;;;;27.93;14.63;;;13.70;99.90;;;;;;5452504;26;20763;-63
2024/04/12 05:33:29;;;;;;;28.27;14.43;;;13.80;99.90;;;;;;5459386;26;20345;-64
2024/04/12 05:36:01;;;;;;;25.83;14.67;;;13.80;99.90;;;;;;5453758;26;20261;-63
2024/04/12 05:38:29;;;;;;;25.93;13.17;;;13.80;99.90;;;;;;5458982;26;20279;-63
2024/04/12 05:41:00;;;;;;;27.03;13.63;;;13.90;99.90;;;;;;5448396;26;20245;-63
2024/04/12 05:43:31;;;;;;;32.83;13.63;;;14.00;99.90;;;;;;5462172;26;20748;-63
2024/04/12 05:46:01;;;;;;;22.23;12.60;;;14.00;99.90;;;;;;5451127;25;20289;-63
2024/04/12 05:48:30;;;;;;;25.57;13.10;;;14.10;99.90;;;;;;5457030;26;20648;-63
2024/04/12 05:51:01;;;;;;;23.77;12.63;;;14.10;99.90;;;;;;5449114;25;20249;-63
2024/04/12 05:53:30;;;;;;;20.40;12.30;;;14.10;99.90;;;;;;5457710;25;20283;-64
2024/04/12 05:58:50;;;;;;;26.23;12.70;;;14.10;99.90;;;;;;5447194;25;20233;-62
2024/04/12 06:01:19;;;;;;;23.43;13.20;;;14.10;99.90;;;;;;5459259;26;20244;-62
2024/04/12 06:03:53;;;;;;;25.50;13.37;;;14.10;99.90;;;;;;5451794;26;20289;-62
2024/04/12 06:06:30;;;;;;;28.20;14.47;;;14.20;99.90;;;;;;5446897;26;20339;-63
2024/04/12 06:09:05;;;;;;;23.97;12.67;;;14.30;99.90;;;;;;5462640;26;20258;-62
2024/04/12 06:11:41;;;;;;;20.50;12.50;;;14.40;99.90;;;;;;5462131;25;20255;-63
2024/04/12 06:14:16;;;;;;;22.13;13.60;;;14.50;99.90;;;;;;5456710;26;20652;-63
2024/04/12 06:16:46;;;;;;;22.60;13.00;;;14.60;99.90;;;;;;5473026;26;20329;-62
2024/04/12 06:19:17;;;;;;;23.67;12.23;;;14.70;99.90;;;;;;5455455;26;20233;-63
2024/04/12 06:21:45;;;;;;;20.47;12.77;;;14.80;99.90;;;;;;5447510;26;20322;-63
2024/04/12 06:24:16;;;;;;;23.17;12.80;;;14.90;99.90;;;;;;5455185;26;20252;-63
2024/04/12 06:26:47;;;;;;;19.50;12.60;;;15.00;99.90;;;;;;5450162;26;20269;-63
2024/04/12 06:29:22;;;;;;;21.63;12.50;;;15.00;99.90;;;;;;5451676;26;20736;-63
2024/04/12 06:32:05;;;;;;;18.40;12.17;;;15.00;99.90;;;;;;5476389;26;20286;-63
2024/04/12 06:34:37;;;;;;;26.53;12.40;;;15.00;99.90;;;;;;5453015;26;20234;-63
2024/04/12 06:37:06;;;;;;;21.50;12.33;;;15.00;99.90;;;;;;5457361;26;20255;-64
2024/04/12 06:39:37;;;;;;;22.63;12.50;;;15.00;99.90;;;;;;5447504;26;20251;-64
2024/04/12 06:42:08;;;;;;;22.83;11.67;;;15.00;99.90;;;;;;5450121;26;20599;-64
2024/04/12 06:44:42;;;;;;;19.70;11.80;;;15.00;99.90;;;;;;5451902;26;20262;-63
2024/04/12 06:47:12;;;;;;;18.67;12.10;;;15.20;99.90;;;;;;5451127;26;20623;-64
2024/04/12 06:49:44;;;;;;;17.87;11.60;;;15.20;99.90;;;;;;5449045;26;20231;-63
2024/04/12 06:52:14;;;;;;;22.33;12.30;;;15.30;99.90;;;;;;5445933;26;20284;-63
2024/04/12 06:54:45;;;;;;;21.33;11.73;;;15.40;99.90;;;;;;5464818;26;20254;-63
2024/04/12 06:57:17;;;;;;;20.90;11.87;;;15.40;99.90;;;;;;5457097;26;20355;-63
2024/04/12 06:59:59;;;;;;;19.70;11.67;;;15.30;99.90;;;;;;5454991;25;20702;-63
2024/04/12 07:02:31;;;;;;;19.30;12.50;;;15.40;99.90;;;;;;5451004;26;20262;-63
2024/04/12 07:04:59;;;;;;;21.73;12.20;;;15.40;99.90;;;;;;5445854;26;20252;-63
2024/04/12 07:07:30;;;;;;;20.57;11.60;;;15.40;99.90;;;;;;5458556;26;20261;-63
2024/04/12 07:09:58;;;;;;;18.40;11.30;;;15.50;99.90;;;;;;5460798;26;20323;-62
2024/04/12 07:12:31;;;;;;;19.27;11.20;;;15.60;99.90;;;;;;5451012;26;20280;-63
2024/04/12 07:15:09;;;;;;;19.10;11.60;;;15.70;99.90;;;;;;5459258;26;20262;-63
2024/04/12 07:17:41;;;;;;;19.00;11.50;;;15.80;99.90;;;;;;5456056;26;20308;-63
2024/04/12 07:20:13;;;;;;;13.13;10.43;;;15.90;99.90;;;;;;5459973;26;20256;-63
2024/04/12 07:22:45;;;;;;;15.77;10.97;;;16.00;99.90;;;;;;5454070;26;20269;-62
2024/04/12 07:25:15;;;;;;;17.03;10.20;;;16.20;99.90;;;;;;5458236;26;20232;-63
2024/04/12 07:27:47;;;;;;;18.00;10.80;;;16.30;99.90;;;;;;5454735;26;20255;-63
2024/04/12 07:30:20;;;;;;;19.47;10.37;;;16.40;99.90;;;;;;5451513;26;20308;-63
2024/04/12 07:32:53;;;;;;;15.87;9.53;;;16.60;99.90;;;;;;5472188;26;20311;-63
2024/04/12 07:35:25;;;;;;;16.47;9.83;;;16.70;99.90;;;;;;5455040;26;20785;-63
2024/04/12 07:37:59;;;;;;;16.63;9.77;;;16.90;99.90;;;;;;5459808;26;20237;-63
2024/04/12 07:40:31;;;;;;;16.23;9.63;;;17.00;99.90;;;;;;5447600;26;20964;-63
2024/04/12 07:43:08;;;;;;;14.27;9.63;;;17.20;99.90;;;;;;5451561;26;20353;-63
2024/04/12 07:45:41;;;;;;;14.73;8.93;;;17.40;99.90;;;;;;5447564;26;20265;-63
2024/04/12 07:48:23;;;;;;;12.63;8.57;;;17.70;99.90;;;;;;5455251;26;20295;-63
2024/04/12 07:51:00;;;;;;;10.70;7.97;;;17.90;99.90;;;;;;5451083;26;20292;-62
2024/04/12 07:53:34;;;;;;;13.63;8.90;;;18.20;99.90;;;;;;5457951;26;20733;-62
2024/04/12 07:56:14;;;;;;;12.83;7.90;;;18.50;99.90;;;;;;5457456;26;20745;-62
2024/04/12 07:59:01;;;;;;;11.13;8.47;;;18.70;99.90;;;;;;5456155;25;20293;-62
2024/04/12 08:01:32;;;;;;;17.93;8.40;;;18.80;99.90;;;;;;5460811;26;20237;-63
2024/04/12 08:04:05;;;;;;;17.23;8.70;;;18.80;99.90;;;;;;5459614;26;20268;-62
2024/04/12 08:06:37;;;;;;;14.77;9.13;;;19.00;99.90;;;;;;5443136;26;20249;-63
2024/04/12 08:09:21;;;;;;;17.10;8.23;;;19.10;99.90;;;;;;5454605;26;20720;-62
2024/04/12 08:11:51;;;;;;;12.97;7.50;;;19.30;99.90;;;;;;5451932;26;21002;-63
2024/04/12 08:14:26;;;;;;;11.03;6.97;;;19.60;99.90;;;;;;5457494;26;20307;-62
2024/04/12 08:17:01;;;;;;;13.20;7.10;;;19.80;95.60;;;;;;5451586;25;20224;-62
2024/04/12 08:19:45;;;;;;;9.83;6.20;;;19.90;86.90;;;;;;5450822;26;20232;-63
2024/04/12 08:22:18;;;;;;;13.03;6.07;;;19.90;75.70;;;;;;5447937;26;20241;-62
2024/04/12 08:24:51;;;;;;;15.47;6.10;;;20.10;63.10;;;;;;5455163;26;20248;-63
2024/04/12 08:27:24;;;;;;;8.47;5.60;;;20.20;58.50;;;;;;5464272;25;20750;-63
2024/04/12 08:29:55;;;;;;;8.37;5.60;;;20.50;52.90;;;;;;5453117;25;20260;-62
2024/04/12 08:32:28;;;;;;;6.83;4.77;;;20.60;36.60;;;;;;5452086;25;20316;-62
2024/04/12 08:35:03;;;;;;;10.70;5.20;;;20.80;21.90;;;;;;5448757;26;20230;-62
2024/04/12 08:37:36;;;;;;;9.93;5.57;;;20.90;1.00;;;;;;5457164;26;20232;-63
2024/04/12 08:40:10;;;;;;;8.90;5.37;;;20.70;1.00;;;;;;5442879;26;20232;-63
2024/04/12 08:42:41;;;;;;;8.67;4.83;;;20.80;1.00;;;;;;5442130;26;20600;-63
2024/04/12 08:45:17;;;;;;;12.20;4.27;;;21.00;1.00;;;;;;5450671;25;20586;-62
2024/04/12 08:47:54;;;;;;;8.63;4.40;;;21.00;1.00;;;;;;5457153;25;20288;-63
2024/04/12 08:50:31;;;;;;;8.03;4.60;;;21.10;1.00;;;;;;5450606;25;20769;-62
2024/04/12 08:53:04;;;;;;;12.77;4.03;;;21.10;1.00;;;;;;5460725;26;20320;-63
2024/04/12 08:55:35;;;;;;;8.93;4.70;;;21.10;1.00;;;;;;5454636;26;20717;-63
2024/04/12 08:58:06;;;;;;;7.83;4.33;;;20.80;1.00;;;;;;5449494;26;20268;-63
2024/04/12 09:00:38;;;;;;;10.37;5.07;;;20.60;1.00;;;;;;5453580;26;20295;-63
2024/04/12 09:03:24;;;;;;;9.13;5.30;;;20.70;1.00;;;;;;5458936;25;20257;-63
2024/04/12 09:05:56;;;;;;;8.97;4.73;;;20.70;1.00;;;;;;5449205;26;20288;-63
2024/04/12 09:08:28;;;;;;;16.30;5.10;;;20.70;1.00;;;;;;5450967;26;20360;-63
2024/04/12 09:11:05;;;;;;;10.07;4.83;;;20.80;1.00;;;;;;5459467;26;20309;-63
2024/04/12 09:13:36;;;;;;;9.27;5.37;;;20.70;1.00;;;;;;5456283;26;20235;-63
2024/04/12 09:16:07;;;;;;;15.00;5.33;;;20.70;1.00;;;;;;5458886;26;21146;-63
2024/04/12 09:18:44;;;;;;;9.17;5.70;;;20.90;1.00;;;;;;5452682;26;20610;-63
2024/04/12 09:21:24;;;;;;;8.50;4.80;;;20.90;1.00;;;;;;5454003;26;20263;-63
2024/04/12 09:23:56;;;;;;;7.13;5.27;;;21.10;1.00;;;;;;5455357;26;20353;-63
2024/04/12 09:26:39;;;;;;;9.97;5.50;;;21.30;1.00;;;;;;5456497;26;20257;-63
2024/04/12 09:29:09;;;;;;;6.77;4.83;;;21.50;1.00;;;;;;5454704;26;20682;-63
2024/04/12 09:34:35;;;;;;;7.10;4.83;;;22.10;1.00;;;;;;5456228;26;20264;-63
2024/04/12 09:40:04;;;;;;;9.03;5.03;;;22.00;1.00;;;;;;5453019;26;20263;-63
2024/04/12 09:42:45;;;;;;;9.30;5.07;;;21.50;1.00;;;;;;5462087;25;20245;-63
2024/04/12 09:45:20;;;;;;;9.67;4.97;;;21.50;1.00;;;;;;5448936;26;20257;-63
2024/04/12 10:38:38;;;;;;;11.00;5.47;;;24.10;99.90;;;;;;5454886;25;20249;-63
2024/04/12 10:41:19;;;;;;;10.53;5.67;;;23.80;99.90;;;;;;5456731;26;20248;-62
2024/04/12 10:43:51;;;;;;;7.27;5.47;;;23.70;99.90;;;;;;5448527;26;20238;-62
2024/04/12 10:46:22;;;;;;;10.73;5.27;;;23.40;99.90;;;;;;5460363;26;20316;-62
2024/04/12 10:48:52;;;;;;;7.37;5.00;;;23.10;1.00;;;;;;5448940;26;20731;-62
2024/04/12 10:51:23;;;;;;;7.63;5.50;;;23.00;99.90;;;;;;5450572;26;20259;-63
2024/04/12 10:53:55;;;;;;;7.60;4.90;;;22.70;1.00;;;;;;5449693;26;20257;-62
2024/04/12 10:56:29;;;;;;;10.37;5.27;;;23.00;1.00;;;;;;5448822;26;20269;-62
2024/04/12 10:58:59;;;;;;;9.47;5.27;;;23.00;1.00;;;;;;5458024;26;20269;-62
2024/04/12 11:01:31;;;;;;;10.73;4.90;;;23.60;99.90;;;;;;5450604;26;20290;-62
2024/04/12 11:03:59;;;;;;;8.90;5.20;;;24.20;99.90;;;;;;5452848;26;20295;-62
2024/04/12 11:06:34;;;;;;;10.20;5.00;;;24.20;60.50;;;;;;5457008;25;20262;-62
2024/04/12 11:09:07;;;;;;;10.27;5.30;;;24.30;1.00;;;;;;5450404;26;20267;-62
2024/04/12 11:11:43;;;;;;;8.20;4.80;;;23.50;99.90;;;;;;5452743;25;20320;-63
2024/04/12 11:14:27;;;;;;;9.07;4.70;;;23.20;99.90;;;;;;5459644;25;20719;-62
2024/04/12 11:31:19;;;;;;;7.13;4.13;;;24.40;1.00;;;;;;5456441;26;20323;-62
2024/04/12 11:33:52;;;;;;;4.40;3.57;;;24.60;1.00;;;;;;5449060;26;20288;-63
2024/04/12 11:36:41;;;;;;;7.13;4.07;;;25.60;99.90;;;;;;5461456;26;20297;-62
2024/04/12 11:39:17;;;;;;;5.38;3.70;;;26.90;1.00;;;;;;5451547;26;20257;-62
2024/04/12 11:41:46;;;;;;;4.10;3.33;;;27.20;99.90;;;;;;5451905;26;20270;-62
2024/04/12 11:44:20;;;;;;;8.50;4.10;;;26.90;1.00;;;;;;5453069;26;20262;-62
2024/04/12 11:46:49;;;;;;;5.82;3.97;;;26.40;1.00;;;;;;5458382;26;20653;-62
2024/04/12 11:49:25;;;;;;;7.05;4.18;;;25.80;99.90;;;;;;5455280;26;20339;-63
2024/04/12 11:51:55;;;;;;;5.28;3.60;;;26.10;99.90;;;;;;5457400;25;20261;-63
2024/04/12 11:54:28;;;;;;;6.13;3.60;;;26.70;1.00;;;;;;5454779;26;20258;-62
2024/04/12 11:56:59;;;;;;;4.80;2.78;;;27.00;99.90;;;;;;5441948;26;20717;-62
2024/04/12 11:59:32;;;;;;;5.05;2.95;;;26.70;1.00;;;;;;5447675;26;20299;-62
2024/04/12 12:02:01;;;;;;;5.47;2.65;;;26.60;1.00;;;;;;5450532;26;21655;-62
2024/04/12 12:04:32;;;;;;;7.80;3.22;;;26.70;90.50;;;;;;5461868;26;20272;-62
2024/04/12 12:07:03;;;;;;;4.50;3.03;;;26.60;99.90;;;;;;5454980;26;20962;-62
2024/04/12 12:09:36;;;;;;;6.77;2.70;;;26.30;99.90;;;;;;5445409;26;20285;-62
2024/04/12 12:12:10;;;;;;;4.57;3.20;;;25.50;1.00;;;;;;5453373;25;20979;-63
2024/04/12 12:14:44;;;;;;;4.63;3.00;;;25.10;99.90;;;;;;5454656;26;20302;-61
2024/04/12 12:17:16;;;;;;;3.43;2.60;;;24.90;1.00;;;;;;5454711;25;20301;-62
2024/04/12 12:19:50;;;;;;;3.87;3.10;;;25.00;1.00;;;;;;5454171;26;20249;-61
2024/04/12 12:22:18;;;;;;;5.03;3.30;;;25.20;99.90;;;;;;5461072;26;20305;-62
2024/04/12 12:24:49;;;;;;;7.37;3.27;;;25.30;1.00;;;;;;5448584;26;20326;-62
2024/04/12 12:27:19;;;;;;;7.20;3.33;;;25.50;1.00;;;;;;5444343;25;20265;-61
2024/04/12 12:29:54;;;;;;;9.03;3.50;;;25.50;1.00;;;;;;5449350;25;20248;-61
2024/04/12 12:32:25;;;;;;;4.67;3.03;;;25.50;1.00;;;;;;5454246;25;20736;-62
2024/04/12 12:34:57;;;;;;;6.50;3.40;;;25.90;99.90;;;;;;5442936;26;20267;-61
2024/04/12 12:37:28;;;;;;;6.70;3.27;;;25.90;1.00;;;;;;5458590;26;20240;-62
2024/04/12 12:40:01;;;;;;;5.50;3.10;;;25.60;1.00;;;;;;5459893;26;20252;-63
2024/04/12 12:42:31;;;;;;;4.50;2.80;;;25.80;99.90;;;;;;5450896;26;20292;-62
2024/04/12 12:45:05;;;;;;;2.67;2.40;;;26.20;1.00;;;;;;5455747;25;20261;-62
2024/04/12 12:47:35;;;;;;;2.60;2.40;;;26.00;89.40;;;;;;5457830;25;20793;-62
2024/04/12 12:50:06;;;;;;;5.87;2.40;;;26.00;99.90;;;;;;5445693;26;20252;-62
2024/04/12 12:52:35;;;;;;;3.10;2.50;;;25.90;1.00;;;;;;5446220;26;20264;-62
2024/04/12 12:55:06;;;;;;;2.63;2.43;;;25.60;99.90;;;;;;5448017;26;20241;-62
2024/04/12 12:57:38;;;;;;;6.50;3.50;;;25.70;1.00;;;;;;5439160;26;20357;-62
2024/04/12 13:00:18;;;;;;;3.83;2.70;;;25.80;1.00;;;;;;5449503;26;20654;-62
2024/04/12 13:02:50;;;;;;;3.47;2.60;;;26.00;1.00;;;;;;5436420;26;20253;-62
2024/04/12 13:05:21;;;;;;;3.30;2.40;;;26.00;1.00;;;;;;5455008;25;20257;-63
2024/04/12 13:07:49;;;;;;;4.70;2.73;;;26.00;62.10;;;;;;5447052;25;20237;-62
2024/04/12 13:10:20;;;;;;;6.77;2.90;;;25.80;1.00;;;;;;5456461;26;20783;-62
2024/04/12 13:12:51;;;;;;;3.73;2.60;;;26.10;99.90;;;;;;5454985;26;20249;-62
2024/04/12 13:15:24;;;;;;;6.10;2.73;;;26.00;3.40;;;;;;5450935;25;20731;-62
2024/04/12 13:17:52;;;;;;;3.33;2.57;;;25.90;99.90;;;;;;5452870;26;20312;-62
2024/04/12 13:20:22;;;;;;;4.90;2.70;;;26.00;99.90;;;;;;5446779;26;20256;-62
2024/04/12 13:22:50;;;;;;;3.33;2.60;;;25.70;1.00;;;;;;5455689;26;20241;-62
2024/04/12 13:25:20;;;;;;;3.97;2.37;;;25.30;99.90;;;;;;5450016;26;20229;-62
2024/04/12 13:27:48;;;;;;;4.40;2.43;;;25.20;1.00;;;;;;5454695;26;20257;-62
2024/04/12 13:30:18;;;;;;;4.97;2.50;;;25.20;99.90;;;;;;5452247;26;20296;-62
2024/04/12 13:32:49;;;;;;;5.93;2.67;;;25.00;1.00;;;;;;5456689;25;20598;-62
2024/04/12 13:35:21;;;;;;;5.90;2.50;;;24.70;1.00;;;;;;5456864;26;20967;-62
2024/04/12 13:37:49;;;;;;;6.10;2.57;;;24.80;1.00;;;;;;5455117;25;20345;-62
2024/04/12 13:40:20;;;;;;;4.63;2.57;;;24.70;1.00;;;;;;5454019;26;20360;-62
2024/04/12 13:42:49;;;;;;;5.23;2.40;;;24.90;37.70;;;;;;5456961;26;20263;-62
2024/04/12 13:50:58;;;;;;;4.17;2.33;;;24.90;1.00;;;;;;5460860;25;20256;-62
2024/04/12 13:53:36;;;;;;;4.00;2.30;;;25.10;1.00;;;;;;5451243;26;20313;-62
2024/04/12 13:56:25;;;;;;;6.00;2.33;;;25.00;1.00;;;;;;5457912;26;20362;-62
2024/04/12 13:58:56;;;;;;;4.73;2.40;;;24.70;99.90;;;;;;5459917;26;20240;-62
2024/04/12 14:01:28;;;;;;;3.87;2.10;;;24.60;99.90;;;;;;5457452;26;20325;-62
2024/04/12 14:04:03;;;;;;;2.30;2.03;;;24.70;1.00;;;;;;5448535;26;20271;-62
2024/04/12 14:06:35;;;;;;;4.90;2.27;;;24.70;1.00;;;;;;5444781;26;20267;-62
2024/04/12 14:09:08;;;;;;;2.30;2.10;;;24.60;1.00;;;;;;5457388;26;20260;-62
2024/04/12 14:11:39;;;;;;;2.63;2.03;;;24.70;1.00;;;;;;5459204;25;20253;-62
2024/04/12 14:14:06;;;;;;;4.00;2.40;;;24.70;1.00;;;;;;5456577;25;20261;-62
2024/04/12 14:16:41;;;;;;;2.47;2.10;;;24.70;99.90;;;;;;5462838;26;20280;-62
2024/04/12 14:19:17;;;;;;;3.23;2.00;;;24.70;1.00;;;;;;5453447;26;20237;-62
2024/04/12 14:21:51;;;;;;;6.80;2.00;;;24.60;1.00;;;;;;5460767;25;20252;-62
2024/04/12 14:27:10;;;;;;;5.63;1.90;;;24.80;99.90;;;;;;5456783;26;20265;-62